Weather observations for the past three days for
Roseau, Roseau Municipal Airport/Rudy Billberg Field
Imperial (Metric)
Date Time (cdt) Wind (mph) Vis. (mi.) Weather Sky Cond. Temperature (ºF) Relative Humidity Wind Chill (°F) Heat Index (°F) Pressure Precipitation (in)
Air Dwpt 6 hour altimeter (in) sea level (mb) 1 hr 3 hr 6 hr
Max. Min.
05 18:35 NW 16 10.00 Overcast OVC037 36.1 22.5 58% 27 29.9 0.0
05 18:15 NW 18 10.00 Overcast OVC034 36 23 59% 26 29.9 0.0
05 17:55 NW 16 10.00 Overcast OVC033 35.6 23.2 61% 27 29.89 0.0
05 17:35 NW 13 10.00 Overcast OVC032 35.8 23.9 62% 28 29.89 0.0
05 17:15 NW 17 9.00 Overcast OVC032 35.6 24.1 63% 26 29.89 0.0
05 16:55 W 15 9.00 Overcast BKN029 OVC036 35.2 24.4 65% 26 29.89 0.0
05 16:35 NW 14 10.00 Overcast SCT030 OVC037 36 25 64% 28 29.89 0.0
05 16:15 NW 14 10.00 Overcast OVC033 36 25.2 65% 28 29.89 0.0
05 15:55 NW 16 10.00 Overcast OVC036 36.7 24.4 61% 28 29.88 0.0
05 15:35 NW 17 G 25 7.00 Light Snow OVC032 35.2 26.2 70% 26 29.88 0.0
05 15:15 NW 15 7.00 Light Snow BKN029 OVC037 35.6 25 65% 27 29.88 0.0
05 14:55 NW 17 9.00 Light Snow SCT027 OVC036 35.2 25 66% 26 29.88 0.0
05 14:35 NW 17 6.00 Light Snow FEW025 OVC035 35.2 25.9 69% 26 29.88 0.0
05 14:15 NW 15 6.00 Light Snow OVC031 34.5 23.7 65% 26 29.88 0.0
05 13:55 NW 16 8.00 Overcast OVC031 35.2 22.8 61% 26 29.87 0.0
05 13:35 NW 15 9.00 Overcast OVC031 34.7 22.6 61% 26 29.87 0.0
05 13:15 W 12 9.00 Overcast OVC030 34.2 22.1 61% 26 29.86 0.0
05 12:55 NW 15 G 21 9.00 Overcast OVC029 33.8 21.6 33.8 28 61% 25 29.86 0.0
05 12:35 NW 16 9.00 Overcast OVC029 33.4 21.6 62% 24 29.86 0.0
05 12:15 NW 13 9.00 Overcast OVC029 33.3 21.6 62% 25 29.85 0.0
05 11:55 NW 13 10.00 Overcast OVC028 32.5 21.9 65% 24 29.85 0.0
05 11:35 NW 16 9.00 Overcast BKN029 OVC036 32 21.7 66% 22 29.85 0.0
05 11:15 NW 15 9.00 Overcast OVC028 32.2 20.7 62% 23 29.84 0.0
05 10:55 NW 18 9.00 Overcast OVC027 31.5 21 65% 21 29.84 0.0
05 10:35 NW 16 9.00 Overcast OVC027 32 21.7 66% 22 29.84 0.0
05 10:15 NW 16 9.00 Unknown Precip BKN024 OVC030 30.9 21.7 69% 21 29.83 0.0
05 09:55 NW 17 9.00 Overcast OVC023 30.4 21.4 69% 20 29.83 0.0
05 09:35 NW 17 8.00 Unknown Precip BKN021 OVC026 29.7 21.4 71% 19 29.83 0.0
05 09:15 NW 17 8.00 Unknown Precip OVC022 29.1 21.2 72% 18 29.82 0.0
05 08:55 NW 18 9.00 Overcast OVC026 29.1 19.9 69% 18 29.82 0.0
05 08:35 NW 15 9.00 Overcast BKN025 BKN030 OVC090 28.9 20.5 71% 18 29.81 0.0
05 08:15 NW 14 9.00 Overcast OVC023 28.6 21 73% 18 29.81 0.0
05 07:55 NW 14 10.00 Overcast BKN023 OVC090 28.4 21.4 75% 18 29.8 0.0
05 07:35 NW 13 10.00 Overcast SCT020 OVC090 28.4 21.4 75% 19 29.8 0.0
05 07:15 NW 16 10.00 Overcast OVC090 28.2 20.8 74% 17 29.79 0.0
05 06:55 NW 16 10.00 Overcast OVC085 28 22.1 29.8 28 78% 17 29.78 0.0
05 06:35 NW 13 10.00 Overcast FEW044 OVC085 28.2 22.5 79% 19 29.77 0.0
05 06:15 NW 14 10.00 Overcast FEW044 OVC090 28.4 22.1 77% 18 29.77 0.0
05 05:55 NW 13 10.00 Overcast SCT034 OVC090 28.6 22.8 79% 19 29.76 0.0
05 05:35 NW 13 10.00 Overcast OVC033 28.9 22.6 77% 19 29.76 0.0
05 05:15 NW 13 10.00 Overcast OVC034 29.1 23.5 80% 20 29.76 0.0
05 04:55 NW 13 10.00 Overcast FEW026 BKN036 OVC055 28.9 24.4 83% 19 29.76 0.0
05 04:35 NW 13 10.00 Overcast SCT026 BKN033 OVC055 28.9 24.4 83% 19 29.75 0.0
05 04:15 NW 12 10.00 Overcast SCT027 BKN035 OVC055 28.9 24.3 83% 20 29.75 0.0
05 03:55 NW 9 8.00 Unknown Precip OVC024 29.1 24.4 83% 21 29.75 0.0
05 03:35 NW 10 7.00 Overcast OVC025 29.1 23.5 80% 21 29.75 0.0
05 03:15 NW 12 8.00 Unknown Precip FEW023 OVC030 29.3 23.7 80% 20 29.75 0.0
05 02:55 NW 10 9.00 Unknown Precip OVC031 29.3 22.5 76% 21 29.74 0.0
05 02:35 NW 10 10.00 Overcast BKN036 OVC047 29.5 22.1 74% 21 29.74 0.0
05 02:15 NW 9 10.00 Overcast OVC039 29.7 22.1 73% 22 29.74 0.0
05 01:55 NW 9 10.00 Overcast BKN042 OVC075 29.7 21.9 73% 22 29.74 0.0
05 01:35 NW 10 10.00 Overcast OVC075 29.7 21.7 72% 21 29.74 0.0
05 01:15 NW 12 10.00 Overcast OVC075 29.7 22.3 74% 21 29.74 0.0
05 00:55 NW 13 10.00 Overcast OVC080 29.8 22.3 36.3 29.3 73% 21 29.74 0.0
05 00:35 NW 13 10.00 Overcast OVC080 29.8 22.6 75% 21 29.74 0.0
05 00:15 NW 12 10.00 Partly Cloudy SCT080 29.5 23.5 79% 21 29.73 0.0
04 23:55 NW 13 10.00 Partly Cloudy SCT027 30 23.7 77% 21 29.73 0.0
04 23:35 NW 12 10.00 Mostly Cloudy SCT027 BKN037 30.6 24.6 79% 22 29.73 0.0
04 23:15 NW 9 10.00 Mostly Cloudy BKN038 BKN045 31.1 24.4 76% 24 29.72 0.0
04 22:55 NW 12 10.00 Overcast OVC037 31.8 24.3 74% 24 29.72 0.0
04 22:35 NW 13 10.00 Mostly Cloudy BKN040 31.8 24.3 74% 23 29.72 0.0
04 22:15 NW 9 10.00 A Few Clouds FEW041 30.6 24.1 77% 23 29.71 0.0
04 21:35 NW 13 10.00 Overcast OVC032 33.3 25.3 73% 25 29.71 0.0
04 20:55 NW 14 6.00 Unknown Precip BKN030 OVC039 33.6 25.9 73% 25 29.7 0.0
04 20:35 NW 14 G 22 10.00 Overcast OVC027 34.2 25.2 70% 25 29.7 0.0
04 20:15 NW 18 10.00 Overcast OVC027 34.3 25.2 69% 24 29.69 0.0
04 19:55 NW 17 10.00 Overcast BKN026 OVC034 35.1 26.1 70% 26 29.68 0.0
04 19:35 NW 20 10.00 Overcast OVC026 35.4 26.4 70% 25 29.68 0.0
04 19:15 NW 16 10.00 Overcast OVC025 36 27 70% 27 29.67 0.0
04 18:55 NW 15 10.00 Overcast OVC025 36.7 28.2 42.8 36.7 71% 28 29.66 0.0
04 18:35 NW 20 10.00 Overcast OVC025 37.2 28.6 71% 28 29.65 0.0
04 18:15 N 16 G 25 10.00 Overcast OVC027 37.8 28.6 70% 29 29.64 0.0
04 17:55 NW 18 G 24 9.00 Overcast BKN030 OVC035 39.2 28.6 66% 31 29.63 0.0
04 17:35 NW 21 10.00 Overcast and Breezy BKN029 OVC034 39.4 29.3 67% 30 29.63 0.0
04 17:15 NW 16 9.00 Overcast OVC029 40.5 29.7 65% 33 29.61 0.0
04 16:55 NW 18 10.00 Overcast BKN030 BKN035 OVC070 41.2 29.8 64% 33 29.6 0.0
04 16:35 NW 25 10.00 Overcast and Breezy BKN034 OVC050 42.3 29.7 61% 33 29.59 0.0
04 16:15 NW 23 10.00 Overcast and Breezy SCT029 BKN036 OVC050 41.9 30 63% 33 29.59 0.0
04 15:55 NW 25 G 30 9.00 Overcast and Breezy SCT027 BKN037 OVC046 41.4 32.4 70% 32 29.58 0.0
04 15:35 NW 24 7.00 Light Rain and Breezy FEW026 BKN032 OVC043 39.2 31.5 74% 29 29.58 0.0
04 15:15 NW 23 G 30 10.00 Overcast and Breezy FEW035 OVC044 42.4 30.6 63% 34 29.57 0.0
04 14:55 NW 23 G 32 9.00 Overcast and Breezy OVC034 39.9 29.3 66% 30 29.57 0.0
04 14:35 NW 25 9.00 Light Rain and Breezy SCT029 OVC038 41.2 29.8 64% 32 29.56 0.0
04 14:15 NW 22 9.00 Overcast and Breezy SCT028 OVC041 40.8 30.6 67% 32 29.56 0.0
04 13:55 NW 24 G 29 9.00 Light Rain and Breezy SCT030 OVC038 40.1 30.4 68% 30 29.55 0.0
04 13:35 NW 21 10.00 Overcast and Breezy OVC032 40.8 29.8 65% 32 29.54 0.0
04 13:15 NW 24 G 29 10.00 Overcast and Breezy OVC031 39.7 29.5 67% 30 29.54 0.0
04 12:55 NW 22 10.00 Overcast and Breezy BKN027 OVC034 40.3 30.6 40.3 36.1 68% 31 29.53 0.0
04 12:35 W 23 G 31 10.00 Overcast and Breezy BKN026 OVC034 39.6 30 69% 30 29.52 0.0
04 12:15 W 20 10.00 Overcast BKN025 OVC032 39.4 30.9 72% 30 29.52 0.0
04 11:55 NW 25 G 33 10.00 Overcast and Breezy OVC021 38.7 31.6 76% 28 29.51 0.0
04 11:35 NW 25 8.00 Unknown Precip and Breezy BKN017 OVC024 38.5 32.4 79% 28 29.51 0.0
04 11:15 NW 24 G 29 8.00 Overcast and Breezy SCT018 OVC024 37.4 32.5 83% 27 29.5 0.0
04 10:55 NW 24 G 32 8.00 Overcast and Breezy BKN019 OVC025 37.9 32.9 82% 28 29.49 0.0
04 10:35 NW 22 G 30 7.00 Overcast and Breezy OVC019 37.8 32.7 82% 28 29.49 0.0
04 10:15 NW 26 10.00 Overcast and Windy OVC017 37.8 32.5 82% 27 29.48 0.0
04 09:55 NW 26 G 30 10.00 Overcast and Windy OVC017 37.6 32.5 82% 27 29.47 0.0
04 09:35 NW 25 10.00 Overcast and Breezy OVC016 37.2 32.5 83% 26 29.46 0.0
04 09:15 W 22 G 30 8.00 Overcast and Breezy OVC014 36.3 32.7 87% 26 29.46 0.0
04 08:55 NW 21 G 29 8.00 Overcast and Breezy OVC013 36.1 33.1 89% 26 29.45 0.0
04 08:35 NW 21 G 28 7.00 Overcast and Breezy OVC014 36.3 33.4 89% 26 29.44 0.0
04 08:15 W 22 G 30 9.00 Overcast and Breezy OVC013 36.3 33.3 89% 26 29.44 0.0
04 07:55 W 24 G 30 9.00 Overcast and Breezy BKN012 BKN022 OVC032 36.1 33.4 90% 25 29.43 0.0
04 07:35 W 21 G 25 8.00 Overcast and Breezy BKN012 BKN021 OVC031 36.7 34.3 91% 27 29.41 0.0
04 07:15 NW 20 4.00 Unknown Precip Fog/Mist BKN011 BKN019 OVC025 36.9 34.9 93% 27 29.4 0.0
04 06:55 NW 22 G 30 8.00 Overcast and Breezy BKN014 OVC020 37.9 34.7 46.2 37.9 88% 28 29.38 0.0 0.04
04 06:35 NW 24 G 30 8.00 Overcast and Breezy BKN011 OVC017 37.9 35.2 90% 28 29.38 0.0
04 06:15 NW 25 G 32 10.00 Overcast and Breezy OVC011 38.3 36 91% 28 29.36 0.0
04 05:55 NW 23 G 31 10.00 Overcast and Breezy OVC012 38.8 36.1 90% 29 29.34 0.0
04 05:35 NW 23 10.00 Overcast and Breezy OVC013 39 36.5 91% 29 29.34 0.0
04 05:15 NW 24 10.00 Overcast and Breezy OVC014 39.4 36.5 89% 29 29.33 0.0
04 04:55 W 24 G 30 10.00 Overcast and Breezy OVC016 40.1 36.9 88% 30 29.32 0.0
04 04:35 W 20 G 25 10.00 Overcast BKN016 OVC055 40.8 37.9 90% 32 29.31 0.0
04 04:15 NW 21 10.00 Overcast and Breezy FEW018 BKN055 OVC070 43 39.9 89% 35 29.29 0.0
04 03:55 W 15 10.00 Overcast BKN060 OVC140 43.3 41.4 93% 37 29.28 0.0 0.04
04 03:35 W 14 10.00 Mostly Cloudy SCT065 BKN150 43.5 41.7 93% 37 29.28 0.0
04 03:15 W 13 G 21 10.00 Partly Cloudy SCT150 43.7 41.9 93% 38 29.27 0.0
04 02:55 SW 13 10.00 Partly Cloudy SCT130 SCT150 43.9 42.4 95% 38 29.27 0.0
04 02:35 SW 10 10.00 Overcast BKN130 OVC150 44.1 42.8 95% 39 29.28 0.0
04 02:15 SW 10 10.00 Overcast OVC120 44.2 43.2 96% 39 29.28 0.0
04 01:55 SW 9 8.00 Mostly Cloudy FEW025 SCT043 SCT049 BKN120 44.4 43 95% 40 29.28 0.0 0.04
04 01:35 SW 7 4.00 Rain Fog/Mist FEW025 OVC047 45.1 43 92% 42 29.29 0.0 0.03
04 01:15 NW 15 1.75 Light Rain Fog/Mist OVC046 45.1 43 92% 39 29.33 0.0 0.01
04 00:55 NW 26 G 35 5.00 Light Rain and Windy FEW031 BKN050 OVC065 48 42.6 67.1 48 82% 40 29.34 0.0 0.01 0.04
04 00:35 NW 17 4.00 Light Rain SCT050 OVC065 49.5 42.6 77% 44 29.32 0.0
04 00:15 NW 24 G 30 10.00 Overcast and Breezy OVC060 52.7 43.7 72% 29.31 0.0
03 23:55 W 8 10.00 Overcast BKN060 OVC070 52.3 48.9 88% 29.29 0.0 0.01
03 23:35 W 6 7.00 Light Rain BKN049 OVC065 52.3 49.5 90% 29.3 0.0 0.01
03 23:15 W 6 8.00 Light Rain OVC050 52.9 49.3 88% 29.31 0.0
03 22:55 W 9 8.00 Light Rain OVC060 54.9 48.2 78% 29.32 0.0 0.02
03 22:35 W 7 7.00 Light Rain OVC060 55 47.8 77% 29.32 0.0 0.01
03 22:15 W 9 8.00 Light Rain FEW035 OVC060 56.8 46.2 68% 29.33 0.0
03 21:55 W 8 8.00 Light Rain BKN060 OVC075 58.1 44.1 60% 29.34 0.0
03 21:35 W 8 9.00 Light Rain FEW042 OVC070 60.1 42.4 52% 29.34 0.0
03 21:15 W 18 G 24 8.00 Light Rain BKN070 OVC080 61.2 41.9 49% 29.34 0.0
03 20:55 W 22 G 29 10.00 Light Rain and Breezy FEW065 BKN080 OVC100 63.3 38.8 41% 29.36 0.0
03 20:35 W 20 G 26 10.00 Mostly Cloudy BKN085 64 37.8 38% 29.36 0.0
03 20:15 SW 18 G 33 10.00 Overcast FEW060 BKN085 OVC100 63.3 36.9 38% 29.36 0.0
03 19:55 W 15 G 29 10.00 Partly Cloudy SCT095 66 34 30% 29.38 0.0
03 19:35 W 13 10.00 Mostly Cloudy BKN090 66.6 32.7 28% 29.39 0.0
03 19:15 W 17 G 28 10.00 Mostly Cloudy BKN095 66.2 32.9 29% 29.4 0.0
03 18:55 W 21 G 30 10.00 Mostly Cloudy and Breezy BKN100 67.3 31.8 70.9 61.3 27% 29.4 0.0
03 18:35 W 15 G 28 10.00 Mostly Cloudy FEW080 BKN095 67.8 32.2 27% 29.42 0.0
03 18:15 W 14 10.00 Overcast OVC095 66.9 35.8 32% 29.43 0.0
03 17:55 SW 15 10.00 Mostly Cloudy BKN095 66.9 35.1 31% 29.42 0.0
03 17:35 SW 21 G 29 10.00 Partly Cloudy and Breezy FEW100 SCT120 67.6 34.3 29% 29.43 0.0
03 17:15 SW 22 G 31 10.00 Partly Cloudy and Breezy SCT130 68.2 34 28% 29.44 0.0
03 16:55 SW 18 G 29 10.00 A Few Clouds FEW100 70.7 34.7 27% 29.46 0.0
03 16:35 W 20 10.00 Partly Cloudy SCT095 69.3 33.6 27% 29.49 0.0
03 16:15 W 22 G 30 10.00 Mostly Cloudy and Breezy BKN090 68.4 33.6 28% 29.51 0.0
03 15:55 SW 16 G 26 10.00 A Few Clouds FEW090 68.9 34.2 28% 29.52 0.0
03 15:35 SW 20 G 25 10.00 A Few Clouds FEW110 67.6 33.6 28% 29.54 0.0
03 15:15 W 14 G 25 10.00 Partly Cloudy SCT100 66.9 31.6 27% 29.56 0.0
03 14:55 W 15 G 20 10.00 A Few Clouds FEW100 66.7 29.8 25% 29.59 0.0
03 14:35 SW 13 G 21 10.00 Fair CLR 66 32.2 28% 29.6 0.0
03 14:15 W 15 G 30 10.00 Fair CLR 65.7 31.5 28% 29.61 0.0
03 13:55 W 14 G 28 10.00 Fair CLR 64.6 30.9 28% 29.62 0.0
03 13:35 SW 18 G 28 10.00 Fair CLR 63.5 30.2 29% 29.64 0.0
03 13:15 W 17 G 24 10.00 Fair CLR 62.1 29.1 29% 29.66 0.0
03 12:55 SW 17 10.00 Fair CLR 60.8 30.6 60.8 36.1 32% 29.68 0.0
03 12:35 W 17 G 25 10.00 Fair CLR 59.7 28.9 31% 29.69 0.0
03 12:15 SW 20 G 25 10.00 Fair CLR 59.9 29.1 31% 29.7 0.0
03 11:55 W 15 10.00 Fair CLR 58.5 28.2 32% 29.72 0.0
03 11:35 W 15 G 22 10.00 Fair CLR 57.6 27.7 32% 29.73 0.0
03 11:15 SW 12 10.00 Fair CLR 55.9 27.3 33% 29.73 0.0
03 10:55 W 10 10.00 Fair CLR 55.4 29.7 37% 29.74 0.0
03 10:35 W 10 10.00 Fair CLR 54.1 29.1 38% 29.75 0.0
03 10:15 W 10 10.00 Fair CLR 52.2 31.1 45% 29.76 0.0
03 09:55 NW 10 10.00 Fair CLR 50.2 32 50% 29.77 0.0
03 09:35 W 12 10.00 Fair CLR 49.1 33.1 54% 45 29.77 0.0
03 09:15 W 9 10.00 Fair CLR 47.5 33.4 58% 44 29.78 0.0
03 08:55 W 9 10.00 Fair CLR 45 32.9 63% 41 29.78 0.0
03 08:35 W 9 10.00 Fair CLR 43.2 32.7 67% 38 29.78 0.0
03 08:15 W 9 10.00 Fair CLR 41 32.4 71% 36 29.78 0.0
03 07:55 W 10 10.00 Fair CLR 38.3 30.9 75% 32 29.78 0.0
03 07:35 W 10 10.00 Fair CLR 37.4 30.4 76% 31 29.78 0.0
03 07:15 W 10 10.00 Fair CLR 36.3 29.8 77% 30 29.78 0.0
03 06:55 W 10 10.00 Fair CLR 36 28.6 43.3 34.9 75% 29 29.78 0.0
03 06:35 W 9 10.00 Fair CLR 36.1 27.7 71% 30 29.78 0.0
03 06:15 W 8 10.00 Fair CLR 35.6 27.9 73% 30 29.77 0.0
03 05:55 W 8 10.00 Fair CLR 35.4 28 75% 30 29.77 0.0
03 05:35 NW 7 10.00 Fair CLR 35.4 27.9 74% 30 29.77 0.0
03 05:15 NW 7 10.00 Fair CLR 35.2 28 75% 30 29.77 0.0
03 04:55 NW 7 10.00 Fair CLR 36.5 27.5 70% 32 29.76 0.0
03 04:35 NW 7 10.00 Fair CLR 36 27.3 71% 31 29.77 0.0
03 04:15 NW 7 10.00 Fair CLR 36.5 27.3 69% 32 29.77 0.0
03 03:55 NW 7 10.00 Fair CLR 37.4 28.6 71% 33 29.76 0.0
03 03:35 N 9 10.00 Fair CLR 38.8 29.3 69% 33 29.76 0.0
03 03:15 N 9 10.00 Fair CLR 39.6 30 69% 34 29.76 0.0
03 02:55 N 10 10.00 Fair CLR 40.6 30.6 67% 35 29.76 0.0
03 02:35 N 12 10.00 Fair CLR 41.2 31.1 67% 35 29.76 0.0
03 02:15 N 9 10.00 Fair CLR 41.4 32.2 70% 36 29.76 0.0
03 01:55 N 9 10.00 Fair CLR 41.7 33.1 72% 37 29.76 0.0
03 01:35 NW 9 10.00 Fair CLR 41.5 33.4 73% 36 29.75 0.0
03 01:15 NW 9 10.00 Fair CLR 42.8 35.1 74% 38 29.75 0.0
03 00:55 NW 13 G 18 10.00 A Few Clouds FEW075 43.2 37.4 57 42.3 80% 37 29.76 0.0
03 00:35 NW 7 10.00 Mostly Cloudy BKN075 43.9 37.9 80% 40 29.74 0.0
03 00:15 NW 8 10.00 Mostly Cloudy BKN075 44.6 39.6 83% 41 29.75 0.0
02 23:55 NW 8 10.00 Fair CLR 45.7 41 84% 42 29.74 0.0
02 23:35 W 8 10.00 Fair CLR 44.8 41.5 88% 41 29.74 0.0
02 23:15 W 6 10.00 Fair CLR 44.8 41.7 89% 42 29.74 0.0
02 22:55 W 7 10.00 Fair CLR 42.6 41 94% 39 29.75 0.0
02 22:35 SW 6 10.00 Fair CLR 45.5 43.2 92% 43 29.74 0.0
02 22:15 SW 7 10.00 Fair CLR 44.2 41.9 92% 41 29.74 0.0
02 21:55 SW 7 10.00 Fair CLR 45.7 42.6 89% 43 29.74 0.0
02 21:35 SW 6 10.00 A Few Clouds FEW110 45.1 42.4 90% 43 29.74 0.0
02 21:15 SW 6 8.00 A Few Clouds FEW110 45 41.2 87% 42 29.74 0.0
02 20:55 S 5 9.00 Fair CLR 46.6 42.3 85% 45 29.74 0.0
02 20:35 S 5 8.00 Fair CLR 49.6 42.8 77% 48 29.74 0.0
02 20:15 S 5 8.00 Fair CLR 52.9 43.3 70% 29.74 0.0
02 19:55 Calm 9.00 Fair CLR 56.5 43.2 61% 29.74 0.0
02 19:35 Calm 9.00 Fair CLR 56.7 43.3 61% 29.74 0.0
02 19:15 Calm 9.00 Fair CLR 56.8 43.9 62% 29.74 0.0
02 18:55 S 3 8.00 Fair CLR 56.8 43.9 61.3 52.3 62% 29.74 0.0
Date Time (cdt) Wind (mph) Vis. (mi.) Weather Sky Cond. Air Dwpt Max. Min. Relative Humidity Wind Chill (°F) Heat Index (°F) altimeter (in) sea level (mb) 1 hr 3 hr 6 hr
6 hour
Temperature (ºF) Pressure Precipitation (in)